createdAt,value
2023-04-18T00:01:58.578Z,26.88
2023-04-18T00:04:26.166Z,36.47
2023-04-18T00:06:53.676Z,36.13
2023-04-18T00:09:20.806Z,20.60
2023-04-18T00:11:47.738Z,27.67
2023-04-18T00:14:15.131Z,28.38
2023-04-18T00:16:42.501Z,24.95
2023-04-18T00:19:13.145Z,30.77
2023-04-18T00:21:44.916Z,31.63
2023-04-18T00:24:12.449Z,29.33
2023-04-18T00:26:39.526Z,36.67
2023-04-18T00:29:06.513Z,34.47
2023-04-18T00:31:35.893Z,39.83
2023-04-18T00:34:02.864Z,41.30
2023-04-18T00:36:30.100Z,27.40
2023-04-18T00:38:57.116Z,21.38
2023-04-18T00:41:27.666Z,21.83
2023-04-18T00:43:55.115Z,44.22
2023-04-18T00:46:22.183Z,26.08
2023-04-18T00:48:56.336Z,31.67
2023-04-18T00:51:28.530Z,27.38
2023-04-18T00:53:55.684Z,32.97
2023-04-18T00:56:24.037Z,22.48
2023-04-18T00:58:51.736Z,24.27
2023-04-18T01:01:18.848Z,28.10
2023-04-18T01:03:46.031Z,34.63
2023-04-18T01:06:15.540Z,31.48
2023-04-18T01:08:43.375Z,37.67
2023-04-18T01:11:10.655Z,30.48
2023-04-18T01:13:39.485Z,36.72
2023-04-18T01:16:06.789Z,24.33
2023-04-18T01:18:35.195Z,24.23
2023-04-18T01:21:02.386Z,34.45
2023-04-18T01:23:30.614Z,27.55
2023-04-18T01:25:57.764Z,28.60
2023-04-18T01:28:27.850Z,34.80
2023-04-18T01:30:56.389Z,26.80
2023-04-18T01:33:23.839Z,27.65
2023-04-18T01:35:51.111Z,26.45
2023-04-18T01:38:18.265Z,35.50
2023-04-18T01:40:45.191Z,28.85
2023-04-18T01:43:12.423Z,28.90
2023-04-18T01:45:39.731Z,27.88
2023-04-18T01:48:09.206Z,32.33
2023-04-18T01:50:43.259Z,25.73
2023-04-18T01:53:11.177Z,19.23
2023-04-18T01:55:38.143Z,29.00
2023-04-18T01:58:05.419Z,34.83
2023-04-18T02:00:32.587Z,35.83
2023-04-18T02:03:00.133Z,27.50
2023-04-18T02:05:27.439Z,33.15
2023-04-18T02:07:54.529Z,26.92
2023-04-18T02:10:21.688Z,34.63
2023-04-18T02:12:49.184Z,25.40
2023-04-18T02:15:16.461Z,39.15
2023-04-18T02:17:43.603Z,23.42
2023-04-18T02:20:11.371Z,25.52
2023-04-18T02:22:39.674Z,35.00
2023-04-18T02:25:07.091Z,30.08
2023-04-18T02:27:34.352Z,24.60
2023-04-18T02:30:02.751Z,32.90
2023-04-18T02:32:34.106Z,31.50
2023-04-18T02:35:01.169Z,34.78
2023-04-18T02:37:28.223Z,44.35
2023-04-18T02:39:55.779Z,26.92
2023-04-18T02:42:22.880Z,29.77
2023-04-18T02:44:50.050Z,42.35
2023-04-18T02:47:17.174Z,34.08
2023-04-18T02:49:46.505Z,32.45
2023-04-18T02:52:14.711Z,30.33
2023-04-18T02:54:41.782Z,35.05
2023-04-18T02:57:13.873Z,34.50
2023-04-18T02:59:58.054Z,31.60
2023-04-18T03:03:03.468Z,32.92
2023-04-18T03:05:39.690Z,34.72
2023-04-18T03:08:07.297Z,31.88
2023-04-18T03:10:36.277Z,37.30
2023-04-18T03:13:03.720Z,37.20
2023-04-18T03:15:33.655Z,29.50
2023-04-18T03:18:01.800Z,43.42
2023-04-18T03:20:32.694Z,30.85
2023-04-18T03:22:59.661Z,43.13
2023-04-18T03:25:29.684Z,31.88
2023-04-18T03:27:57.882Z,34.35
2023-04-18T03:30:26.156Z,37.72
2023-04-18T03:32:56.254Z,37.95
2023-04-18T03:35:23.598Z,31.30
2023-04-18T03:37:51.181Z,40.33
2023-04-18T03:40:24.116Z,34.72
2023-04-18T03:42:54.635Z,39.53
2023-04-18T03:45:22.409Z,44.40
2023-04-18T03:47:50.508Z,47.15
2023-04-18T03:50:18.080Z,35.90
2023-04-18T03:52:47.124Z,46.45
2023-04-18T03:55:16.353Z,43.00
2023-04-18T03:57:43.232Z,37.63
2023-04-18T04:00:15.367Z,47.63
2023-04-18T04:02:55.641Z,30.70
2023-04-18T04:05:22.993Z,44.03
2023-04-18T04:07:51.135Z,33.22
2023-04-18T04:10:18.679Z,32.30
2023-04-18T04:12:46.978Z,36.85
2023-04-18T04:15:14.065Z,35.88
2023-04-18T04:17:47.602Z,49.42
2023-04-18T04:20:17.143Z,50.58
2023-04-18T04:22:44.373Z,54.53
2023-04-18T04:25:13.894Z,52.17
2023-04-18T04:27:43.288Z,39.20
2023-04-18T04:30:13.484Z,55.65
2023-04-18T04:32:40.882Z,19.75
2023-04-18T04:35:08.859Z,31.85
2023-04-18T04:37:35.951Z,15.82
2023-04-18T04:40:23.977Z,20.60
2023-04-18T04:43:00.223Z,22.13
2023-04-18T04:45:34.696Z,25.67
2023-04-18T04:48:01.857Z,23.80
2023-04-18T04:50:29.142Z,26.83
2023-04-18T04:52:56.275Z,24.50
2023-04-18T04:55:24.648Z,22.67
2023-04-18T04:57:51.912Z,20.75
2023-04-18T05:00:52.681Z,26.60
2023-04-18T05:03:21.193Z,33.40
2023-04-18T05:05:49.104Z,21.55
2023-04-18T05:08:16.158Z,29.90
2023-04-18T05:10:43.541Z,30.42
2023-04-18T05:13:10.616Z,33.60
2023-04-18T05:15:39.602Z,21.08
2023-04-18T05:18:06.832Z,23.83
2023-04-18T05:20:33.843Z,33.55
2023-04-18T05:23:01.089Z,29.70
2023-04-18T05:25:29.869Z,25.73
2023-04-18T05:27:56.927Z,29.42
2023-04-18T05:30:23.920Z,27.58
2023-04-18T05:32:51.072Z,24.20
2023-04-18T05:35:18.702Z,32.83
2023-04-18T05:37:45.776Z,25.90
2023-04-18T05:40:13.381Z,35.75
2023-04-18T05:42:40.545Z,32.58
2023-04-18T05:45:08.184Z,26.48
2023-04-18T05:47:35.748Z,39.38
2023-04-18T05:50:03.060Z,29.52
2023-04-18T05:52:32.571Z,32.38
2023-04-18T05:54:59.580Z,34.20
2023-04-18T05:57:26.448Z,24.05
2023-04-18T05:59:53.563Z,33.80
2023-04-18T06:02:21.334Z,25.95
2023-04-18T06:04:49.196Z,24.88
2023-04-18T06:07:16.470Z,31.83
2023-04-18T06:09:43.678Z,29.02
2023-04-18T06:12:10.900Z,33.35
2023-04-18T06:14:37.895Z,32.40
2023-04-18T06:17:07.356Z,36.15
2023-04-18T06:19:34.368Z,30.13
2023-04-18T06:22:01.660Z,25.35
2023-04-18T06:24:30.175Z,33.58
2023-04-18T06:26:58.531Z,29.85
2023-04-18T06:29:30.351Z,28.33
2023-04-18T06:31:57.986Z,34.78
2023-04-18T06:34:25.127Z,39.83
2023-04-18T06:36:52.644Z,26.50
2023-04-18T06:39:19.601Z,35.30
2023-04-18T06:41:46.498Z,30.63
2023-04-18T06:44:21.103Z,32.70
2023-04-18T06:46:49.201Z,35.50
2023-04-18T06:49:16.211Z,27.17
2023-04-18T06:51:43.251Z,32.53
2023-04-18T06:54:10.249Z,35.67
2023-04-18T06:56:37.298Z,31.38
2023-04-18T06:59:04.543Z,34.65
2023-04-18T07:01:33.656Z,30.33
2023-04-18T07:04:00.956Z,24.67
2023-04-18T07:06:28.324Z,22.70
2023-04-18T07:09:00.164Z,25.40
2023-04-18T07:11:28.535Z,20.58
2023-04-18T07:13:55.679Z,21.90
2023-04-18T07:16:22.999Z,22.13
2023-04-18T07:18:50.116Z,35.67
2023-04-18T07:21:17.539Z,20.35
2023-04-18T07:23:44.558Z,15.60
2023-04-18T07:26:13.414Z,21.38
2023-04-18T07:28:40.458Z,23.10
2023-04-18T07:31:11.497Z,21.23
2023-04-18T07:33:38.870Z,15.88
2023-04-18T07:36:06.391Z,25.00
2023-04-18T07:38:35.534Z,23.02
2023-04-18T07:41:03.340Z,22.77
2023-04-18T07:43:30.727Z,24.98
2023-04-18T07:45:57.841Z,28.27
2023-04-18T07:48:27.875Z,16.23
2023-04-18T07:50:54.890Z,19.33
2023-04-18T07:53:22.325Z,21.65
2023-04-18T07:55:49.977Z,21.50
2023-04-18T07:58:17.455Z,21.48
2023-04-18T08:00:45.113Z,25.98
2023-04-18T08:03:13.247Z,30.27
2023-04-18T08:05:42.866Z,23.00
2023-04-18T08:08:12.071Z,24.77
2023-04-18T08:10:39.559Z,22.38
2023-04-18T08:13:06.922Z,21.10
2023-04-18T08:15:34.326Z,25.52
2023-04-18T08:18:01.766Z,22.67
2023-04-18T08:20:29.097Z,22.58
2023-04-18T08:25:27.002Z,28.45
2023-04-18T08:27:54.168Z,22.45
2023-04-18T08:30:21.239Z,28.50
2023-04-18T08:32:49.206Z,22.13
2023-04-18T08:35:16.601Z,27.33
2023-04-18T08:37:43.635Z,40.95
2023-04-18T08:40:10.914Z,29.25
2023-04-18T08:42:38.764Z,20.42
2023-04-18T08:45:09.670Z,28.33
2023-04-18T08:47:36.824Z,24.77
2023-04-18T08:50:04.190Z,29.98
2023-04-18T08:52:32.626Z,27.23
2023-04-18T08:54:59.977Z,29.63
2023-04-18T08:57:27.089Z,22.77
2023-04-18T08:59:55.469Z,21.85
2023-04-18T09:02:45.229Z,26.95
2023-04-18T09:05:19.735Z,24.90
2023-04-18T09:07:49.171Z,23.75
2023-04-18T09:10:36.630Z,15.63
2023-04-18T09:13:04.470Z,25.70
2023-04-18T09:15:32.014Z,18.27
2023-04-18T09:18:03.100Z,27.15
2023-04-18T09:20:35.774Z,27.27
2023-04-18T09:23:05.004Z,34.47
2023-04-18T09:25:36.270Z,28.42
2023-04-18T09:28:05.790Z,21.33
2023-04-18T09:30:38.355Z,23.13
2023-04-18T09:33:10.291Z,22.55
2023-04-18T09:35:38.339Z,16.92
2023-04-18T09:38:07.688Z,15.48
2023-04-18T09:40:34.972Z,17.05
2023-04-18T09:43:19.747Z,25.83
2023-04-18T09:45:51.346Z,18.27
2023-04-18T09:48:18.576Z,22.25
2023-04-18T09:50:47.633Z,18.75
2023-04-18T09:53:20.633Z,28.95
2023-04-18T09:55:54.806Z,34.63
2023-04-18T09:58:25.420Z,28.08
2023-04-18T10:00:54.499Z,28.80
2023-04-18T10:03:27.525Z,28.42
2023-04-18T10:05:57.788Z,30.92
2023-04-18T10:08:26.404Z,23.95
2023-04-18T10:10:56.040Z,26.70
2023-04-18T10:13:24.806Z,32.47
2023-04-18T10:15:52.587Z,35.35
2023-04-18T10:18:24.625Z,29.75
2023-04-18T10:21:01.995Z,25.30
2023-04-18T10:23:37.942Z,26.73
2023-04-18T10:26:09.330Z,20.80
2023-04-18T10:28:53.518Z,25.55
2023-04-18T10:31:23.405Z,31.02
2023-04-18T10:34:18.557Z,33.72
2023-04-18T10:37:05.281Z,32.70
2023-04-18T10:39:48.428Z,32.10
2023-04-18T10:42:15.554Z,24.75
2023-04-18T10:44:42.819Z,28.65
2023-04-18T10:47:09.777Z,21.95
2023-04-18T10:49:37.107Z,30.73
2023-04-18T10:52:06.175Z,34.20
2023-04-18T10:54:44.047Z,29.83
2023-04-18T10:57:12.147Z,26.17
2023-04-18T10:59:42.508Z,23.15
2023-04-18T11:02:27.251Z,28.17
2023-04-18T11:04:58.621Z,23.40
2023-04-18T11:07:41.971Z,27.98
2023-04-18T11:10:09.952Z,25.33
2023-04-18T11:12:39.618Z,23.33
2023-04-18T11:15:17.797Z,20.33
2023-04-18T11:17:45.328Z,32.53
2023-04-18T11:20:16.957Z,31.67
2023-04-18T11:22:55.132Z,24.98
2023-04-18T11:25:35.106Z,26.08
2023-04-18T11:28:03.991Z,25.70
2023-04-18T11:30:39.431Z,20.15
2023-04-18T11:33:14.381Z,28.58
2023-04-18T11:35:48.746Z,33.72
2023-04-18T11:38:16.525Z,23.52
2023-04-18T11:40:50.646Z,22.98
2023-04-18T11:43:23.560Z,15.98
2023-04-18T11:45:55.797Z,31.55
2023-04-18T11:48:23.440Z,24.98
2023-04-18T11:50:51.035Z,45.55
2023-04-18T11:53:37.743Z,24.88
2023-04-18T11:56:05.729Z,18.08
2023-04-18T11:58:37.119Z,20.42
2023-04-18T12:01:20.366Z,34.05
2023-04-18T12:04:21.109Z,25.83
2023-04-18T12:06:54.301Z,27.65
2023-04-18T12:09:24.512Z,22.73
2023-04-18T12:12:03.063Z,28.88
2023-04-18T12:14:31.434Z,24.05
2023-04-18T12:16:58.469Z,33.78
2023-04-18T12:19:28.205Z,33.50
2023-04-18T12:22:06.822Z,29.40
2023-04-18T12:24:39.925Z,20.90
2023-04-18T12:27:07.325Z,26.60
2023-04-18T12:29:34.256Z,27.35
2023-04-18T12:32:01.181Z,33.08
2023-04-18T12:34:28.733Z,29.88
2023-04-18T12:36:55.820Z,28.60
2023-04-18T12:39:23.016Z,30.70
2023-04-18T12:41:51.941Z,25.92
2023-04-18T12:44:19.124Z,24.73
2023-04-18T12:46:46.284Z,23.88
2023-04-18T12:49:13.247Z,17.45
2023-04-18T12:51:40.741Z,21.75
2023-04-18T12:54:07.763Z,29.58
2023-04-18T12:56:35.024Z,43.85
2023-04-18T12:59:02.012Z,23.30
2023-04-18T13:01:29.104Z,24.60
2023-04-18T13:04:08.379Z,30.13
2023-04-18T13:06:38.509Z,20.27
2023-04-18T13:09:05.589Z,29.42
2023-04-18T13:11:35.566Z,43.47
2023-04-18T13:14:02.625Z,22.88
2023-04-18T13:16:29.745Z,23.98
2023-04-18T13:18:56.810Z,25.45
2023-04-18T13:21:25.256Z,28.35
2023-04-18T13:23:52.262Z,32.97
2023-04-18T13:26:19.172Z,24.98
2023-04-18T13:28:46.041Z,22.25
2023-04-18T13:31:14.093Z,33.28
2023-04-18T13:33:42.207Z,21.27
2023-04-18T13:36:09.359Z,38.20
2023-04-18T13:38:36.846Z,21.48
2023-04-18T13:41:12.201Z,26.95
2023-04-18T13:43:48.444Z,26.65
2023-04-18T13:46:15.666Z,26.95
2023-04-18T13:48:42.655Z,20.13
2023-04-18T13:51:09.672Z,23.48
2023-04-18T13:53:36.932Z,22.95
2023-04-18T13:56:04.043Z,27.05
2023-04-18T13:58:31.124Z,22.10
2023-04-18T14:00:58.162Z,23.58
2023-04-18T14:03:25.427Z,39.63
2023-04-18T14:05:52.467Z,44.10
2023-04-18T14:08:19.465Z,24.95
2023-04-18T14:10:46.531Z,24.88
2023-04-18T14:13:13.544Z,22.65
2023-04-18T14:15:40.725Z,24.83
2023-04-18T14:18:07.690Z,23.65
2023-04-18T14:20:48.802Z,21.67
2023-04-18T14:23:34.346Z,21.25
2023-04-18T14:26:08.033Z,19.88
2023-04-18T14:28:35.163Z,21.45
2023-04-18T14:31:03.072Z,23.17
2023-04-18T14:33:30.195Z,21.25
2023-04-18T14:35:57.475Z,27.08
2023-04-18T14:38:24.760Z,19.80
2023-04-18T14:40:51.695Z,26.00
2023-04-18T14:43:18.739Z,17.85
2023-04-18T14:45:45.651Z,22.17
2023-04-18T14:48:12.662Z,20.92
2023-04-18T14:50:39.815Z,16.05
2023-04-18T14:53:07.761Z,21.02
2023-04-18T14:55:34.943Z,28.63
2023-04-18T14:58:02.024Z,22.17
2023-04-18T15:00:32.455Z,20.17
2023-04-18T15:02:59.573Z,23.77
2023-04-18T15:05:30.697Z,24.35
2023-04-18T15:07:58.204Z,14.02
2023-04-18T15:10:25.298Z,33.35
2023-04-18T15:12:52.718Z,18.13
2023-04-18T15:15:19.990Z,31.38
2023-04-18T15:17:47.118Z,24.13
2023-04-18T15:20:14.137Z,15.27
2023-04-18T15:22:41.118Z,20.98
2023-04-18T15:25:08.503Z,19.48
2023-04-18T15:27:35.609Z,22.27
2023-04-18T15:30:03.048Z,22.05
2023-04-18T15:32:33.003Z,23.38
2023-04-18T15:35:00.634Z,20.02
2023-04-18T15:37:27.953Z,20.50
2023-04-18T15:39:54.919Z,24.00
2023-04-18T15:42:21.794Z,17.52
2023-04-18T15:44:49.704Z,22.13
2023-04-18T15:47:17.182Z,19.60
2023-04-18T15:49:44.263Z,16.13
2023-04-18T15:52:11.674Z,19.23
2023-04-18T15:54:41.744Z,12.70
2023-04-18T15:57:09.955Z,18.02
2023-04-18T15:59:37.370Z,14.88
2023-04-18T16:02:06.631Z,23.40
2023-04-18T16:04:33.965Z,15.93
2023-04-18T16:07:05.037Z,21.55
2023-04-18T16:09:32.216Z,18.73
2023-04-18T16:11:59.427Z,19.02
2023-04-18T16:14:26.554Z,15.45
2023-04-18T16:16:55.085Z,24.73
2023-04-18T16:19:22.188Z,25.63
2023-04-18T16:21:49.594Z,19.33
2023-04-18T16:24:16.683Z,18.15
2023-04-18T16:26:43.768Z,13.35
2023-04-18T16:29:10.754Z,19.75
2023-04-18T16:31:38.185Z,20.30
2023-04-18T16:34:05.494Z,16.30
2023-04-18T16:36:35.728Z,17.42
2023-04-18T16:39:02.995Z,15.27
2023-04-18T16:41:30.040Z,25.73
2023-04-18T16:43:58.360Z,13.82
2023-04-18T16:46:25.625Z,16.13
2023-04-18T16:48:52.795Z,18.30
2023-04-18T16:51:19.895Z,20.60
2023-04-18T16:53:46.953Z,11.88
2023-04-18T16:56:13.900Z,18.65
2023-04-18T16:58:41.240Z,21.23
2023-04-18T17:01:08.361Z,20.77
2023-04-18T17:03:36.771Z,12.63
2023-04-18T17:06:04.645Z,20.42
2023-04-18T17:08:33.114Z,22.20
2023-04-18T17:11:02.135Z,17.85
2023-04-18T17:13:31.663Z,11.90
2023-04-18T17:15:58.976Z,15.90
2023-04-18T17:18:26.066Z,16.70
2023-04-18T17:20:53.094Z,19.30
2023-04-18T17:23:20.382Z,12.60
2023-04-18T17:25:47.758Z,14.88
2023-04-18T17:28:15.122Z,25.27
2023-04-18T17:30:42.359Z,18.38
2023-04-18T17:33:09.869Z,14.93
2023-04-18T17:35:37.219Z,11.30
2023-04-18T17:38:04.197Z,10.93
2023-04-18T17:40:31.256Z,10.38
2023-04-18T17:42:58.385Z,13.30
2023-04-18T17:45:25.652Z,12.68
2023-04-18T17:47:52.748Z,11.38
2023-04-18T17:50:19.938Z,15.70
2023-04-18T17:52:46.913Z,20.58
2023-04-18T17:55:14.119Z,13.07
2023-04-18T17:57:41.716Z,15.30
2023-04-18T18:00:11.882Z,21.00
2023-04-18T18:02:45.067Z,16.58
2023-04-18T18:05:14.899Z,14.65
2023-04-18T18:07:47.354Z,11.35
2023-04-18T18:10:23.308Z,14.10
2023-04-18T18:12:50.647Z,15.88
2023-04-18T18:15:18.380Z,17.50
2023-04-18T18:17:47.624Z,14.77
2023-04-18T18:20:14.755Z,16.80
2023-04-18T18:22:42.118Z,24.65
2023-04-18T18:25:09.638Z,15.25
2023-04-18T18:27:36.816Z,21.35
2023-04-18T18:30:09.642Z,12.45
2023-04-18T18:32:37.286Z,10.55
2023-04-18T18:35:06.097Z,13.82
2023-04-18T18:37:33.543Z,13.20
2023-04-18T18:40:00.603Z,14.05
2023-04-18T18:42:28.726Z,12.43
2023-04-18T18:44:55.859Z,12.60
2023-04-18T18:47:23.102Z,13.65
2023-04-18T18:49:50.168Z,14.10
2023-04-18T18:52:17.200Z,9.98
2023-04-18T18:54:44.247Z,14.45
2023-04-18T18:57:11.255Z,13.23
2023-04-18T18:59:38.366Z,14.35
2023-04-18T19:02:06.127Z,11.43
2023-04-18T19:04:36.294Z,10.30
2023-04-18T19:07:04.978Z,12.68
2023-04-18T19:09:32.041Z,12.05
2023-04-18T19:11:59.059Z,13.57
2023-04-18T19:14:26.031Z,13.98
2023-04-18T19:16:53.313Z,12.32
2023-04-18T19:19:20.252Z,13.02
2023-04-18T19:21:47.413Z,21.40
2023-04-18T19:24:14.936Z,13.15
2023-04-18T19:26:42.553Z,13.50
2023-04-18T19:29:10.964Z,22.02
2023-04-18T19:31:38.122Z,12.20
2023-04-18T19:34:05.166Z,17.75
2023-04-18T19:36:32.242Z,12.80
2023-04-18T19:38:59.171Z,13.30
2023-04-18T19:41:26.378Z,13.95
2023-04-18T19:43:53.751Z,11.05
2023-04-18T19:46:20.787Z,12.77
2023-04-18T19:48:48.067Z,9.23
2023-04-18T19:51:15.106Z,12.27
2023-04-18T19:53:42.123Z,12.95
2023-04-18T19:56:11.227Z,12.00
2023-04-18T19:58:44.928Z,9.40
2023-04-18T20:01:17.471Z,10.80
2023-04-18T20:03:44.952Z,28.42
2023-04-18T20:06:12.887Z,14.68
2023-04-18T20:08:45.815Z,13.52
2023-04-18T20:11:16.742Z,10.35
2023-04-18T20:13:43.691Z,10.68
2023-04-18T20:16:12.294Z,10.30
2023-04-18T20:18:41.717Z,8.80
2023-04-18T20:21:10.888Z,11.50
2023-04-18T20:23:38.265Z,14.80
2023-04-18T20:26:05.306Z,17.05
2023-04-18T20:28:32.301Z,10.75
2023-04-18T20:30:59.297Z,8.88
2023-04-18T20:33:26.358Z,22.50
2023-04-18T20:35:54.802Z,13.10
2023-04-18T20:38:26.214Z,12.15
2023-04-18T20:40:54.428Z,12.77
2023-04-18T20:43:23.269Z,9.15
2023-04-18T20:45:58.775Z,14.73
2023-04-18T20:48:25.987Z,13.00
2023-04-18T20:50:53.086Z,8.25
2023-04-18T20:53:21.354Z,10.40
2023-04-18T20:55:52.201Z,13.63
2023-04-18T20:58:19.332Z,12.27
2023-04-18T21:00:46.476Z,14.27
2023-04-18T21:03:14.173Z,20.13
2023-04-18T21:05:41.912Z,11.88
2023-04-18T21:08:08.977Z,15.05
2023-04-18T21:10:35.909Z,9.32
2023-04-18T21:13:03.508Z,12.57
2023-04-18T21:15:30.498Z,9.77
2023-04-18T21:17:57.698Z,11.02
2023-04-18T21:20:24.978Z,11.00
2023-04-18T21:22:51.882Z,13.70
2023-04-18T21:25:21.316Z,14.02
2023-04-18T21:27:50.690Z,15.13
2023-04-18T21:30:17.982Z,12.73
2023-04-18T21:32:47.308Z,18.13
2023-04-18T21:35:16.074Z,12.18
2023-04-18T21:37:44.203Z,19.70
2023-04-18T21:40:11.369Z,14.40
2023-04-18T21:42:38.588Z,17.50
2023-04-18T21:45:06.603Z,16.55
2023-04-18T21:47:33.882Z,16.00
2023-04-18T21:50:00.905Z,9.38
2023-04-18T21:52:30.692Z,12.10
2023-04-18T21:54:59.293Z,14.32
2023-04-18T21:57:26.413Z,13.82
2023-04-18T21:59:55.181Z,18.17
2023-04-18T22:02:22.354Z,10.38
2023-04-18T22:04:49.423Z,12.50
2023-04-18T22:07:18.693Z,14.00
2023-04-18T22:09:46.554Z,11.60
2023-04-18T22:12:16.384Z,10.75
2023-04-18T22:14:48.244Z,13.82
2023-04-18T22:17:16.586Z,11.68
2023-04-18T22:19:44.718Z,11.65
2023-04-18T22:22:12.316Z,13.63
2023-04-18T22:24:39.607Z,13.30
2023-04-18T22:27:07.028Z,14.52
2023-04-18T22:29:34.557Z,16.10
2023-04-18T22:32:01.675Z,13.23
2023-04-18T22:34:29.236Z,12.82
2023-04-18T22:36:56.324Z,12.35
2023-04-18T22:39:24.676Z,11.13
2023-04-18T22:41:51.627Z,15.98
2023-04-18T22:44:18.916Z,10.95
2023-04-18T22:46:47.561Z,9.18
2023-04-18T22:49:14.764Z,11.45
2023-04-18T22:51:42.378Z,10.27
2023-04-18T22:54:09.559Z,9.90
2023-04-18T22:56:36.701Z,15.95
2023-04-18T22:59:03.828Z,10.77
2023-04-18T23:01:34.094Z,11.55
2023-04-18T23:04:01.629Z,11.13
2023-04-18T23:06:31.031Z,10.75
2023-04-18T23:08:58.903Z,12.52
2023-04-18T23:11:26.483Z,13.80
2023-04-18T23:13:53.477Z,14.45
2023-04-18T23:16:22.179Z,10.40
2023-04-18T23:18:49.520Z,9.85
2023-04-18T23:21:17.552Z,9.23
2023-04-18T23:23:44.656Z,13.63
2023-04-18T23:26:14.470Z,12.05
2023-04-18T23:28:42.473Z,15.23
2023-04-18T23:31:10.078Z,15.20
2023-04-18T23:33:37.584Z,10.07
2023-04-18T23:36:04.887Z,8.35
2023-04-18T23:38:31.982Z,13.23
2023-04-18T23:40:58.987Z,14.43
2023-04-18T23:43:26.017Z,12.07
2023-04-18T23:45:53.057Z,12.77
2023-04-18T23:48:20.233Z,14.35
2023-04-18T23:50:48.963Z,12.77
2023-04-18T23:53:20.152Z,13.10
2023-04-18T23:55:50.105Z,16.92
2023-04-18T23:58:17.882Z,12.75
